createdAt,value
2023-04-16T00:02:21.837Z,4.80
2023-04-16T00:07:23.441Z,4.20
2023-04-16T00:12:25.339Z,3.90
2023-04-16T00:17:26.866Z,4.00
2023-04-16T00:22:28.367Z,3.50
2023-04-16T00:27:29.932Z,3.60
2023-04-16T00:32:31.409Z,3.90
2023-04-16T00:37:32.943Z,4.80
2023-04-16T00:42:37.094Z,4.40
2023-04-16T00:47:39.104Z,4.30
2023-04-16T00:52:40.964Z,3.90
2023-04-16T00:57:42.570Z,5.00
2023-04-16T01:02:44.442Z,5.00
2023-04-16T01:07:46.122Z,3.10
2023-04-16T01:12:47.623Z,4.50
2023-04-16T01:17:49.600Z,4.70
2023-04-16T01:22:51.480Z,4.50
2023-04-16T01:27:54.934Z,4.90
2023-04-16T01:32:57.927Z,4.80
2023-04-16T01:38:00.185Z,5.10
2023-04-16T01:43:02.186Z,4.50
2023-04-16T01:48:05.069Z,5.20
2023-04-16T01:53:06.633Z,5.50
2023-04-16T01:58:11.083Z,5.80
2023-04-16T02:03:13.450Z,5.30
2023-04-16T02:08:15.080Z,6.00
2023-04-16T02:13:17.044Z,5.90
2023-04-16T02:18:19.222Z,4.70
2023-04-16T02:23:21.181Z,4.70
2023-04-16T02:28:22.727Z,6.40
2023-04-16T02:33:26.443Z,6.40
2023-04-16T02:38:27.960Z,6.30
2023-04-16T02:43:29.980Z,6.40
2023-04-16T02:48:32.320Z,5.90
2023-04-16T02:53:34.023Z,6.30
2023-04-16T02:58:35.713Z,5.90
2023-04-16T03:03:37.201Z,6.00
2023-04-16T03:08:38.688Z,7.80
2023-04-16T03:13:40.197Z,5.80
2023-04-16T03:18:42.151Z,5.80
2023-04-16T03:23:43.639Z,5.10
2023-04-16T03:28:45.332Z,6.00
2023-04-16T03:33:46.867Z,7.80
2023-04-16T03:38:49.383Z,7.10
2023-04-16T03:43:50.915Z,6.40
2023-04-16T03:48:52.412Z,6.90
2023-04-16T03:53:53.914Z,8.00
2023-04-16T03:58:56.166Z,6.80
2023-04-16T04:03:58.637Z,6.90
2023-04-16T04:09:00.555Z,12.10
2023-04-16T04:14:02.317Z,12.60
2023-04-16T04:19:03.873Z,11.90
2023-04-16T04:24:05.532Z,11.40
2023-04-16T04:29:07.123Z,8.40
2023-04-16T04:34:09.314Z,7.00
2023-04-16T04:39:11.034Z,7.50
2023-04-16T04:44:13.282Z,8.00
2023-04-16T04:49:14.771Z,7.60
2023-04-16T04:54:16.797Z,7.70
2023-04-16T04:59:18.374Z,7.30
2023-04-16T05:04:19.895Z,6.70
2023-04-16T05:09:21.855Z,6.20
2023-04-16T05:14:23.575Z,6.70
2023-04-16T05:19:25.462Z,6.30
2023-04-16T05:24:26.946Z,6.20
2023-04-16T05:29:28.633Z,6.60
2023-04-16T05:34:30.790Z,6.70
2023-04-16T05:39:32.753Z,6.60
2023-04-16T05:44:34.721Z,6.40
2023-04-16T05:49:39.659Z,6.50
2023-04-16T05:54:41.173Z,5.60
2023-04-16T05:59:42.839Z,4.80
2023-04-16T06:04:44.351Z,6.50
2023-04-16T06:09:45.883Z,6.20
2023-04-16T06:14:47.397Z,5.50
2023-04-16T06:19:49.111Z,5.30
2023-04-16T06:24:50.673Z,5.00
2023-04-16T06:29:52.311Z,5.10
2023-04-16T06:34:53.892Z,5.50
2023-04-16T06:39:55.418Z,5.20
2023-04-16T06:44:57.054Z,5.10
2023-04-16T06:49:58.818Z,5.20
2023-04-16T06:55:00.459Z,5.10
2023-04-16T07:00:03.220Z,4.40
2023-04-16T07:05:05.766Z,5.00
2023-04-16T07:10:08.344Z,4.50
2023-04-16T07:15:10.580Z,5.40
2023-04-16T07:20:12.204Z,5.90
2023-04-16T07:25:13.891Z,5.20
2023-04-16T07:30:15.752Z,5.80
2023-04-16T07:35:17.441Z,5.30
2023-04-16T07:40:19.391Z,4.40
2023-04-16T07:45:21.422Z,5.90
2023-04-16T07:50:23.417Z,4.70
2023-04-16T07:55:25.069Z,6.00
2023-04-16T08:00:26.713Z,5.40
2023-04-16T08:05:28.474Z,4.90
2023-04-16T08:10:30.262Z,5.40
2023-04-16T08:15:31.967Z,5.90
2023-04-16T08:20:33.754Z,5.80
2023-04-16T08:25:35.686Z,5.90
2023-04-16T08:30:37.267Z,5.30
2023-04-16T08:35:38.820Z,5.50
2023-04-16T08:40:42.541Z,5.80
2023-04-16T08:45:44.589Z,4.70
2023-04-16T08:50:48.240Z,5.40
2023-04-16T08:55:51.436Z,5.80
2023-04-16T09:00:54.139Z,5.10
2023-04-16T09:05:59.212Z,5.00
2023-04-16T09:11:00.859Z,5.10
2023-04-16T09:16:03.790Z,5.00
2023-04-16T09:21:07.827Z,4.80
2023-04-16T09:26:09.315Z,4.90
2023-04-16T09:31:17.128Z,4.60
2023-04-16T09:36:23.610Z,4.90
2023-04-16T09:41:28.457Z,4.80
2023-04-16T09:46:40.908Z,4.70
2023-04-16T09:51:43.847Z,4.50
2023-04-16T09:56:47.022Z,5.10
2023-04-16T10:02:14.971Z,4.90
2023-04-16T10:07:17.096Z,4.40
2023-04-16T10:12:19.322Z,4.70
2023-04-16T10:17:21.904Z,4.60
2023-04-16T10:22:48.008Z,5.30
2023-04-16T10:27:50.651Z,5.10
2023-04-16T10:32:53.487Z,4.70
2023-04-16T10:37:58.217Z,4.40
2023-04-16T10:43:01.679Z,4.20
2023-04-16T10:48:10.095Z,3.80
2023-04-16T10:53:23.771Z,4.30
2023-04-16T10:58:31.013Z,4.00
2023-04-16T11:03:33.011Z,4.20
2023-04-16T11:08:38.839Z,4.00
2023-04-16T11:13:46.367Z,4.40
2023-04-16T11:18:51.768Z,3.80
2023-04-16T11:23:53.834Z,4.40
2023-04-16T11:28:57.299Z,4.10
2023-04-16T11:34:00.522Z,6.30
2023-04-16T11:39:04.237Z,4.40
2023-04-16T11:44:24.220Z,4.40
2023-04-16T11:49:32.465Z,4.40
2023-04-16T11:54:36.542Z,4.30
2023-04-16T11:59:38.317Z,4.60
2023-04-16T12:04:59.969Z,4.20
2023-04-16T12:10:08.754Z,4.50
2023-04-16T12:15:11.197Z,4.70
2023-04-16T12:20:15.466Z,4.60
2023-04-16T12:25:18.465Z,4.60
2023-04-16T12:30:22.916Z,4.90
2023-04-16T12:35:32.843Z,4.40
2023-04-16T12:40:34.677Z,4.10
2023-04-16T12:45:38.538Z,4.20
2023-04-16T12:50:40.329Z,4.00
2023-04-16T12:55:42.032Z,4.30
2023-04-16T13:00:44.137Z,4.80
2023-04-16T13:05:45.713Z,4.30
2023-04-16T13:10:47.493Z,4.60
2023-04-16T13:15:49.145Z,4.30
2023-04-16T13:20:51.185Z,4.30
2023-04-16T13:25:53.297Z,4.20
2023-04-16T13:30:54.992Z,3.90
2023-04-16T13:35:56.813Z,4.00
2023-04-16T13:40:58.569Z,4.10
2023-04-16T13:46:01.150Z,4.20
2023-04-16T13:51:02.966Z,4.40
2023-04-16T13:56:05.147Z,3.80
2023-04-16T14:01:07.381Z,4.80
2023-04-16T14:06:09.037Z,4.10
2023-04-16T14:11:12.121Z,3.90
2023-04-16T14:16:14.085Z,4.30
2023-04-16T14:21:17.010Z,4.80
2023-04-16T14:26:20.664Z,4.40
2023-04-16T14:31:22.465Z,4.20
2023-04-16T14:36:24.018Z,4.30
2023-04-16T14:41:27.234Z,4.00
2023-04-16T14:46:30.747Z,3.80
2023-04-16T14:51:32.800Z,4.30
2023-04-16T14:56:34.769Z,4.20
2023-04-16T15:01:39.721Z,4.70
2023-04-16T15:06:42.618Z,4.40
2023-04-16T15:11:44.231Z,4.20
2023-04-16T15:16:49.750Z,4.70
2023-04-16T15:21:53.085Z,4.70
2023-04-16T15:26:54.561Z,4.20
2023-04-16T15:31:56.293Z,3.80
2023-04-16T15:36:57.880Z,4.30
2023-04-16T15:42:02.213Z,4.20
2023-04-16T15:47:06.511Z,4.50
2023-04-16T15:52:08.173Z,4.80
2023-04-16T15:57:09.738Z,5.30
2023-04-16T16:02:11.316Z,4.40
2023-04-16T16:07:15.593Z,5.60
2023-04-16T16:12:17.357Z,5.30
2023-04-16T16:17:20.459Z,4.90
2023-04-16T16:22:24.014Z,5.10
2023-04-16T16:27:25.838Z,4.70
2023-04-16T16:32:27.524Z,4.30
2023-04-16T16:37:29.766Z,5.00
2023-04-16T16:42:32.356Z,6.90
2023-04-16T16:47:34.024Z,6.40
2023-04-16T16:52:36.183Z,7.00
2023-04-16T16:57:40.828Z,7.00
2023-04-16T17:02:42.453Z,6.70
2023-04-16T17:07:44.680Z,10.70
2023-04-16T17:12:51.199Z,7.80
2023-04-16T17:17:52.863Z,7.10
2023-04-16T17:22:54.527Z,6.10
2023-04-16T17:27:56.287Z,5.10
2023-04-16T17:32:58.222Z,5.50
2023-04-16T17:38:00.358Z,6.00
2023-04-16T17:43:02.230Z,6.20
2023-04-16T17:48:04.735Z,23.40
2023-04-16T17:53:06.478Z,9.60
2023-04-16T17:58:08.271Z,7.30
2023-04-16T18:03:11.793Z,6.70
2023-04-16T18:08:13.417Z,6.10
2023-04-16T18:13:14.926Z,6.20
2023-04-16T18:18:16.744Z,6.40
2023-04-16T18:23:18.297Z,6.50
2023-04-16T18:28:19.847Z,7.50
2023-04-16T18:33:44.432Z,7.30
2023-04-16T18:38:57.008Z,7.30
2023-04-16T18:44:02.376Z,7.00
2023-04-16T18:49:03.891Z,7.50
2023-04-16T18:54:05.609Z,7.30
2023-04-16T18:59:07.130Z,6.40
2023-04-16T19:04:08.673Z,7.00
2023-04-16T19:09:11.562Z,6.80
2023-04-16T19:14:13.509Z,6.90
2023-04-16T19:19:15.021Z,7.70
2023-04-16T19:24:16.627Z,7.20
2023-04-16T19:29:18.199Z,7.20
2023-04-16T19:34:19.694Z,8.20
2023-04-16T19:39:21.550Z,8.10
2023-04-16T19:44:23.342Z,10.10
2023-04-16T19:49:28.069Z,24.20
2023-04-16T19:54:29.718Z,27.50
2023-04-16T19:59:32.305Z,18.00
2023-04-16T20:04:34.760Z,16.40
2023-04-16T20:09:36.357Z,12.50
2023-04-16T20:14:37.906Z,14.20
2023-04-16T20:19:39.408Z,14.30
2023-04-16T20:24:42.081Z,17.40
2023-04-16T20:29:43.759Z,14.10
2023-04-16T20:34:45.331Z,11.30
2023-04-16T20:39:50.011Z,11.40
2023-04-16T20:44:56.622Z,10.20
2023-04-16T20:50:01.854Z,9.10
2023-04-16T20:55:03.869Z,9.10
2023-04-16T21:00:09.917Z,8.60
2023-04-16T21:05:14.142Z,9.20
2023-04-16T21:10:20.406Z,9.70
2023-04-16T21:15:22.460Z,9.60
2023-04-16T21:20:23.956Z,9.40
2023-04-16T21:25:25.873Z,9.50
2023-04-16T21:30:27.662Z,9.00
2023-04-16T21:35:31.940Z,9.30
2023-04-16T21:40:33.635Z,9.20
2023-04-16T21:45:35.533Z,9.80
2023-04-16T21:50:37.157Z,9.50
2023-04-16T21:55:40.732Z,8.80
2023-04-16T22:00:42.641Z,8.60
2023-04-16T22:05:45.951Z,9.30
2023-04-16T22:10:47.461Z,8.50
2023-04-16T22:15:49.080Z,9.80
2023-04-16T22:20:54.770Z,9.70
2023-04-16T22:25:57.106Z,9.70
2023-04-16T22:30:58.616Z,9.40
2023-04-16T22:36:00.574Z,9.20
2023-04-16T22:41:02.425Z,9.70
2023-04-16T22:46:06.700Z,9.30
2023-04-16T22:51:09.617Z,9.90
2023-04-16T22:56:12.320Z,9.40
2023-04-16T23:01:13.895Z,10.40
2023-04-16T23:06:15.812Z,10.10
2023-04-16T23:11:17.320Z,9.20
2023-04-16T23:16:19.289Z,9.50
2023-04-16T23:21:20.825Z,9.70
2023-04-16T23:26:22.371Z,9.90
2023-04-16T23:31:24.010Z,10.50
2023-04-16T23:36:27.353Z,11.20
2023-04-16T23:41:28.878Z,10.40
2023-04-16T23:46:30.607Z,10.80
2023-04-16T23:51:32.238Z,9.80
2023-04-16T23:56:34.054Z,10.20
